createdAt,value
2023-03-22T00:02:17.484Z,89.18
2023-03-22T00:04:45.717Z,89.40
2023-03-22T00:07:13.678Z,89.34
2023-03-22T00:09:41.551Z,88.98
2023-03-22T00:12:09.476Z,89.48
2023-03-22T00:14:37.592Z,89.47
2023-03-22T00:17:05.542Z,89.31
2023-03-22T00:19:34.401Z,89.59
2023-03-22T00:22:03.621Z,89.49
2023-03-22T00:24:32.016Z,89.36
2023-03-22T00:27:00.898Z,89.16
2023-03-22T00:29:28.769Z,89.46
2023-03-22T00:31:56.596Z,89.57
2023-03-22T00:34:24.528Z,89.27
2023-03-22T00:36:52.465Z,89.16
2023-03-22T00:39:21.053Z,89.00
2023-03-22T00:41:49.040Z,88.81
2023-03-22T00:44:17.072Z,89.03
2023-03-22T00:46:46.397Z,88.92
2023-03-22T00:49:15.141Z,89.35
2023-03-22T00:51:43.075Z,88.88
2023-03-22T00:54:12.038Z,88.38
2023-03-22T00:56:39.897Z,88.66
2023-03-22T00:59:14.395Z,88.57
2023-03-22T01:01:43.506Z,88.33
2023-03-22T01:04:18.101Z,88.17
2023-03-22T01:06:47.249Z,88.16
2023-03-22T01:09:15.467Z,88.09
2023-03-22T01:11:44.032Z,88.40
2023-03-22T01:14:14.125Z,88.59
2023-03-22T01:16:42.254Z,88.63
2023-03-22T01:19:10.659Z,88.53
2023-03-22T01:21:38.905Z,88.66
2023-03-22T01:24:06.992Z,88.47
2023-03-22T01:26:35.922Z,88.43
2023-03-22T01:29:04.222Z,88.11
2023-03-22T01:31:32.176Z,88.01
2023-03-22T01:34:00.231Z,88.16
2023-03-22T01:36:28.718Z,88.21
2023-03-22T01:38:57.217Z,88.17
2023-03-22T01:41:25.948Z,89.01
2023-03-22T01:44:23.146Z,89.38
2023-03-22T01:46:52.445Z,89.11
2023-03-22T01:49:26.096Z,88.75
2023-03-22T01:51:58.250Z,88.35
2023-03-22T01:54:44.944Z,88.24
2023-03-22T01:57:29.592Z,87.95
2023-03-22T02:00:00.805Z,88.18
2023-03-22T02:02:51.025Z,88.26
2023-03-22T02:05:27.719Z,88.25
2023-03-22T02:07:56.895Z,88.70
2023-03-22T02:10:27.921Z,88.64
2023-03-22T02:13:09.044Z,88.24
2023-03-22T02:15:52.704Z,87.94
2023-03-22T02:19:31.814Z,87.54
2023-03-22T02:22:06.639Z,87.11
2023-03-22T02:24:45.926Z,86.99
2023-03-22T02:27:25.856Z,87.22
2023-03-22T02:30:18.221Z,87.11
2023-03-22T02:32:58.757Z,86.97
2023-03-22T02:36:12.728Z,86.53
2023-03-22T02:39:04.909Z,86.48
2023-03-22T02:42:06.620Z,86.77
2023-03-22T02:44:41.048Z,86.29
2023-03-22T02:47:12.114Z,85.93
2023-03-22T02:49:47.768Z,86.07
2023-03-22T02:52:27.184Z,86.02
2023-03-22T02:55:18.478Z,86.19
2023-03-22T02:58:00.305Z,86.77
2023-03-22T03:00:31.182Z,87.21
2023-03-22T03:03:11.408Z,87.23
2023-03-22T03:05:43.579Z,87.48
2023-03-22T03:08:16.530Z,87.74
2023-03-22T03:10:46.312Z,87.99
2023-03-22T03:13:17.278Z,87.89
2023-03-22T03:15:48.771Z,87.89
2023-03-22T03:18:32.537Z,88.17
2023-03-22T03:21:45.307Z,88.49
2023-03-22T03:24:39.957Z,88.60
2023-03-22T03:27:23.029Z,88.82
2023-03-22T03:30:11.601Z,88.99
2023-03-22T03:32:52.714Z,88.98
2023-03-22T03:35:23.080Z,88.86
2023-03-22T03:37:57.698Z,89.26
2023-03-22T03:40:37.758Z,89.29
2023-03-22T03:43:07.306Z,89.49
2023-03-22T03:45:37.268Z,89.70
2023-03-22T03:48:11.828Z,89.92
2023-03-22T03:50:40.356Z,89.93
2023-03-22T03:53:08.916Z,90.27
2023-03-22T03:55:37.788Z,90.29
2023-03-22T03:58:06.295Z,90.05
2023-03-22T04:00:34.416Z,90.07
2023-03-22T04:03:31.830Z,90.52
2023-03-22T04:06:19.921Z,90.76
2023-03-22T04:08:53.853Z,91.02
2023-03-22T04:11:25.634Z,91.32
2023-03-22T04:13:56.984Z,91.75
2023-03-22T04:16:25.186Z,91.92
2023-03-22T04:18:53.831Z,92.08
2023-03-22T04:21:22.939Z,92.23
2023-03-22T04:23:57.209Z,92.25
2023-03-22T04:26:26.784Z,92.34
2023-03-22T04:29:14.398Z,92.28
2023-03-22T04:31:45.805Z,92.50
2023-03-22T04:34:49.310Z,92.42
2023-03-22T04:37:20.054Z,92.64
2023-03-22T04:39:54.455Z,92.84
2023-03-22T04:42:59.008Z,93.02
2023-03-22T04:45:37.543Z,92.85
2023-03-22T04:48:07.941Z,92.62
2023-03-22T04:50:38.538Z,92.54
2023-03-22T04:53:08.191Z,92.74
2023-03-22T04:55:36.186Z,93.24
2023-03-22T04:58:04.449Z,93.44
2023-03-22T05:00:32.354Z,93.02
2023-03-22T05:03:04.091Z,92.88
2023-03-22T05:05:40.935Z,92.88
2023-03-22T05:08:08.950Z,93.25
2023-03-22T05:10:41.175Z,93.15
2023-03-22T05:13:09.900Z,93.16
2023-03-22T05:15:42.744Z,93.13
2023-03-22T05:18:14.434Z,93.03
2023-03-22T05:20:43.609Z,93.35
2023-03-22T05:23:21.136Z,93.14
2023-03-22T05:25:53.538Z,92.68
2023-03-22T05:28:22.288Z,92.85
2023-03-22T05:31:11.950Z,92.56
2023-03-22T05:33:48.514Z,92.64
2023-03-22T05:36:20.512Z,92.75
2023-03-22T05:39:09.088Z,92.63
2023-03-22T05:41:37.249Z,92.36
2023-03-22T05:44:05.658Z,92.18
2023-03-22T05:46:34.500Z,92.13
2023-03-22T05:49:26.910Z,91.89
2023-03-22T05:51:55.303Z,91.80
2023-03-22T05:54:25.447Z,91.80
2023-03-22T05:56:55.787Z,91.56
2023-03-22T05:59:24.204Z,91.39
2023-03-22T06:01:52.756Z,91.39
2023-03-22T06:04:23.657Z,91.35
2023-03-22T06:06:56.514Z,91.32
2023-03-22T06:09:43.066Z,91.96
2023-03-22T06:12:17.392Z,91.83
2023-03-22T06:14:48.489Z,91.40
2023-03-22T06:17:32.853Z,91.39
2023-03-22T06:20:00.751Z,91.46
2023-03-22T06:22:30.626Z,91.45
2023-03-22T06:24:59.133Z,91.09
2023-03-22T06:27:35.598Z,90.82
2023-03-22T06:30:04.490Z,90.45
2023-03-22T06:32:34.998Z,89.80
2023-03-22T06:35:04.721Z,89.57
2023-03-22T06:37:32.772Z,89.36
2023-03-22T06:40:01.032Z,88.84
2023-03-22T06:42:31.039Z,88.82
2023-03-22T06:45:09.666Z,88.79
2023-03-22T06:47:40.024Z,88.66
2023-03-22T06:50:27.377Z,87.79
2023-03-22T06:53:08.792Z,87.44
2023-03-22T06:55:36.776Z,87.36
2023-03-22T06:58:22.269Z,87.26
2023-03-22T07:00:50.217Z,86.85
2023-03-22T07:03:19.680Z,86.58
2023-03-22T07:05:51.977Z,86.29
2023-03-22T07:08:19.988Z,85.87
2023-03-22T07:10:51.724Z,85.57
2023-03-22T07:13:22.233Z,84.91
2023-03-22T07:15:56.761Z,84.23
2023-03-22T07:18:35.962Z,84.02
2023-03-22T07:21:04.122Z,83.81
2023-03-22T07:23:32.497Z,83.99
2023-03-22T07:26:06.407Z,83.80
2023-03-22T07:28:35.813Z,83.43
2023-03-22T07:31:07.908Z,83.31
2023-03-22T07:33:45.446Z,83.22
2023-03-22T07:36:13.428Z,82.33
2023-03-22T07:38:42.010Z,81.14
2023-03-22T07:41:14.062Z,81.20
2023-03-22T07:44:04.822Z,79.82
2023-03-22T07:46:43.717Z,79.34
2023-03-22T07:49:37.810Z,79.52
2023-03-22T07:52:10.983Z,79.86
2023-03-22T07:54:39.161Z,79.78
2023-03-22T07:57:08.689Z,79.02
2023-03-22T07:59:41.425Z,78.83
2023-03-22T08:02:11.230Z,79.01
2023-03-22T08:04:43.668Z,78.49
2023-03-22T08:07:18.672Z,78.27
2023-03-22T08:09:47.431Z,77.34
2023-03-22T08:12:16.186Z,77.31
2023-03-22T08:14:50.580Z,75.92
2023-03-22T08:17:21.321Z,74.68
2023-03-22T08:19:50.177Z,74.72
2023-03-22T08:22:29.709Z,73.72
2023-03-22T08:25:17.996Z,73.43
2023-03-22T08:27:46.343Z,73.39
2023-03-22T08:30:16.110Z,71.59
2023-03-22T08:32:46.457Z,70.71
2023-03-22T08:35:14.631Z,70.42
2023-03-22T08:37:43.031Z,69.64
2023-03-22T08:40:12.145Z,68.26
2023-03-22T08:42:49.067Z,68.17
2023-03-22T08:45:17.471Z,67.72
2023-03-22T08:47:51.260Z,67.45
2023-03-22T08:50:23.435Z,67.09
2023-03-22T08:52:58.104Z,64.96
2023-03-22T08:55:35.529Z,63.80
2023-03-22T08:58:13.758Z,64.42
2023-03-22T09:01:02.514Z,63.96
2023-03-22T09:03:48.979Z,60.90
2023-03-22T09:06:17.006Z,60.19
2023-03-22T09:08:45.726Z,59.78
2023-03-22T09:11:17.808Z,56.71
2023-03-22T09:13:48.848Z,54.34
2023-03-22T09:16:17.931Z,54.48
2023-03-22T09:18:46.801Z,55.67
2023-03-22T09:21:19.161Z,55.55
2023-03-22T09:24:14.204Z,54.34
2023-03-22T09:26:47.570Z,53.74
2023-03-22T09:29:19.670Z,52.97
2023-03-22T09:31:49.106Z,53.66
2023-03-22T09:34:23.309Z,53.34
2023-03-22T09:36:55.764Z,53.56
2023-03-22T09:39:28.786Z,53.48
2023-03-22T09:42:02.481Z,53.46
2023-03-22T09:44:37.597Z,53.62
2023-03-22T09:47:15.571Z,53.61
2023-03-22T09:49:53.896Z,53.68
2023-03-22T09:52:22.785Z,52.70
2023-03-22T09:54:52.868Z,52.50
2023-03-22T09:57:37.598Z,52.80
2023-03-22T10:00:21.788Z,51.88
2023-03-22T10:02:56.294Z,51.88
2023-03-22T10:05:33.250Z,51.86
2023-03-22T10:08:35.304Z,51.74
2023-03-22T10:11:10.082Z,50.70
2023-03-22T10:13:50.147Z,49.69
2023-03-22T10:16:33.367Z,48.70
2023-03-22T10:19:13.372Z,48.61
2023-03-22T10:21:41.963Z,48.30
2023-03-22T10:24:18.297Z,48.28
2023-03-22T10:26:47.898Z,47.13
2023-03-22T10:29:38.518Z,46.72
2023-03-22T10:32:25.188Z,46.27
2023-03-22T10:34:53.094Z,44.27
2023-03-22T10:37:27.021Z,43.95
2023-03-22T10:39:58.258Z,42.54
2023-03-22T10:42:29.985Z,42.89
2023-03-22T10:45:01.892Z,43.32
2023-03-22T10:47:41.449Z,44.66
2023-03-22T10:50:18.832Z,44.51
2023-03-22T10:53:11.398Z,45.14
2023-03-22T10:55:44.186Z,45.65
2023-03-22T10:58:18.150Z,45.66
2023-03-22T11:00:56.972Z,45.03
2023-03-22T11:03:49.479Z,44.88
2023-03-22T11:06:27.223Z,44.41
2023-03-22T11:09:12.614Z,44.62
2023-03-22T11:11:57.607Z,45.20
2023-03-22T11:14:31.551Z,44.79
2023-03-22T11:17:07.957Z,44.83
2023-03-22T11:19:42.317Z,44.86
2023-03-22T11:22:23.027Z,44.54
2023-03-22T11:24:52.032Z,44.92
2023-03-22T11:27:24.617Z,44.72
2023-03-22T11:29:57.908Z,44.37
2023-03-22T11:32:35.490Z,44.53
2023-03-22T11:35:27.245Z,43.89
2023-03-22T11:37:56.664Z,44.01
2023-03-22T11:40:34.022Z,43.71
2023-03-22T11:43:19.556Z,44.05
2023-03-22T11:45:53.459Z,44.03
2023-03-22T11:48:24.637Z,44.00
2023-03-22T11:51:04.735Z,43.42
2023-03-22T11:53:37.244Z,43.82
2023-03-22T11:56:07.715Z,43.73
2023-03-22T11:58:38.435Z,43.62
2023-03-22T12:01:11.073Z,43.81
2023-03-22T12:03:43.303Z,43.58
2023-03-22T12:06:33.610Z,43.33
2023-03-22T12:09:23.441Z,43.35
2023-03-22T12:11:55.862Z,43.14
2023-03-22T12:14:26.462Z,42.29
2023-03-22T12:17:33.150Z,42.02
2023-03-22T12:20:07.164Z,42.23
2023-03-22T12:22:41.737Z,41.70
2023-03-22T12:25:17.487Z,41.39
2023-03-22T12:27:51.156Z,41.28
2023-03-22T12:30:33.848Z,41.34
2023-03-22T12:33:06.839Z,41.11
2023-03-22T12:35:39.378Z,41.01
2023-03-22T12:38:19.626Z,40.71
2023-03-22T12:40:53.707Z,39.99
2023-03-22T12:43:45.871Z,39.99
2023-03-22T12:46:25.721Z,40.13
2023-03-22T12:49:13.488Z,40.80
2023-03-22T12:51:44.160Z,41.03
2023-03-22T12:54:14.802Z,41.38
2023-03-22T12:56:46.015Z,41.33
2023-03-22T12:59:23.460Z,41.41
2023-03-22T13:02:32.836Z,40.92
2023-03-22T13:05:06.763Z,41.07
2023-03-22T13:07:51.596Z,41.51
2023-03-22T13:10:36.308Z,41.26
2023-03-22T13:13:12.980Z,41.25
2023-03-22T13:15:56.110Z,41.11
2023-03-22T13:18:37.811Z,40.76
2023-03-22T13:21:21.324Z,40.59
2023-03-22T13:24:10.029Z,40.58
2023-03-22T13:26:52.976Z,40.03
2023-03-22T13:29:25.428Z,39.68
2023-03-22T13:32:02.095Z,39.69
2023-03-22T13:34:36.259Z,39.25
2023-03-22T13:37:22.978Z,39.37
2023-03-22T13:39:52.138Z,39.71
2023-03-22T13:42:22.491Z,39.73
2023-03-22T13:44:59.202Z,39.43
2023-03-22T13:47:36.307Z,39.61
2023-03-22T13:50:31.583Z,39.10
2023-03-22T13:53:05.873Z,39.52
2023-03-22T13:55:51.905Z,39.21
2023-03-22T13:58:36.246Z,38.74
2023-03-22T14:01:28.205Z,38.46
2023-03-22T14:04:03.382Z,38.20
2023-03-22T14:06:35.359Z,37.78
2023-03-22T14:09:22.932Z,37.67
2023-03-22T14:12:02.140Z,37.45
2023-03-22T14:14:36.736Z,37.74
2023-03-22T14:17:18.477Z,37.39
2023-03-22T14:19:47.777Z,37.38
